createdAt,value
2023-02-16T00:03:16.262Z,1.8
2023-02-16T00:13:22.862Z,1.8
2023-02-16T00:23:29.574Z,1.8
2023-02-16T00:33:36.139Z,1.8
2023-02-16T00:43:42.732Z,1.8
2023-02-16T00:53:49.513Z,1.7
2023-02-16T01:03:56.071Z,1.7
2023-02-16T01:14:02.645Z,1.7
2023-02-16T01:24:08.545Z,1.7
2023-02-16T01:34:15.091Z,1.6
2023-02-16T01:44:21.666Z,1.6
2023-02-16T01:54:28.274Z,1.6
2023-02-16T02:04:34.855Z,1.5
2023-02-16T02:14:41.452Z,1.5
2023-02-16T02:24:48.021Z,1.4
2023-02-16T02:34:54.592Z,1.3
2023-02-16T02:45:01.179Z,1.3
2023-02-16T02:55:07.774Z,1.3
2023-02-16T03:05:14.379Z,1.3
2023-02-16T03:15:20.939Z,1.2
2023-02-16T03:25:27.534Z,1.3
2023-02-16T03:35:33.391Z,1.2
2023-02-16T03:45:39.952Z,1.2
2023-02-16T03:55:46.558Z,1.2
2023-02-16T04:05:53.139Z,1.2
2023-02-16T04:15:59.718Z,1.3
2023-02-16T04:26:06.319Z,1.2
2023-02-16T04:36:12.873Z,1.1
2023-02-16T04:46:19.485Z,1.1
2023-02-16T04:56:26.048Z,1.1
2023-02-16T05:06:32.635Z,1
2023-02-16T05:16:39.239Z,1
2023-02-16T05:26:45.831Z,1
2023-02-16T05:36:52.401Z,1
2023-02-16T05:46:58.267Z,1
2023-02-16T05:57:04.864Z,1
2023-02-16T06:07:11.408Z,0.9
2023-02-16T06:17:17.908Z,0.9
2023-02-16T06:27:24.535Z,0.9
2023-02-16T06:37:31.053Z,0.9
2023-02-16T06:47:37.603Z,0.9
2023-02-16T06:57:44.139Z,0.8
2023-02-16T07:07:50.671Z,0.8
2023-02-16T07:17:57.185Z,0.8
2023-02-16T07:28:03.743Z,0.8
2023-02-16T07:38:10.377Z,0.9
2023-02-16T07:48:16.955Z,0.8
2023-02-16T07:58:22.593Z,0.9
2023-02-16T08:08:29.141Z,0.9
2023-02-16T08:18:35.703Z,0.9
2023-02-16T08:28:42.184Z,0.9
2023-02-16T08:48:55.265Z,0.9
2023-02-16T08:59:01.819Z,0.9
2023-02-16T09:09:08.337Z,0.9
2023-02-16T09:19:14.856Z,1
2023-02-16T09:29:21.431Z,0.9
2023-02-16T09:39:27.894Z,1
2023-02-16T09:49:34.488Z,1
2023-02-16T09:59:40.989Z,1.2
2023-02-16T10:09:46.781Z,1.5
2023-02-16T10:19:53.318Z,1.7
2023-02-16T10:29:59.845Z,1.9
2023-02-16T10:40:06.363Z,2.1
2023-02-16T10:50:12.911Z,2.3
2023-02-16T11:00:19.436Z,2.4
2023-02-16T11:10:26.017Z,2.7
2023-02-16T11:20:32.556Z,2.8
2023-02-16T11:30:39.116Z,2.8
2023-02-16T11:40:45.603Z,3
2023-02-16T11:50:52.054Z,3.2
2023-02-16T12:00:57.999Z,3.2
2023-02-16T12:11:04.577Z,3.4
2023-02-16T12:21:11.089Z,3.9
2023-02-16T12:31:17.593Z,4.6
2023-02-16T12:41:24.172Z,5.3
2023-02-16T12:51:30.688Z,5.7
2023-02-16T13:01:37.177Z,5.8
2023-02-16T13:11:43.774Z,5.8
2023-02-16T13:21:50.321Z,5.7
2023-02-16T13:31:57.050Z,5.5
2023-02-16T13:42:03.573Z,5.3
2023-02-16T13:52:10.134Z,5.2
2023-02-16T14:02:16.578Z,5.1
2023-02-16T14:12:22.468Z,5.1
2023-02-16T14:22:28.836Z,5.1
2023-02-16T14:32:35.362Z,5.1
2023-02-16T14:42:41.851Z,5.2
2023-02-16T14:52:48.403Z,5.3
2023-02-16T15:02:54.910Z,5.5
2023-02-16T15:13:01.459Z,5.5
2023-02-16T15:23:08.014Z,5.5
2023-02-16T15:33:14.523Z,5.5
2023-02-16T15:43:21.077Z,5.4
2023-02-16T15:53:27.575Z,5.4
2023-02-16T16:03:34.313Z,5.3
2023-02-16T16:13:40.810Z,5.3
2023-02-16T16:23:46.552Z,5.3
2023-02-16T16:33:53.122Z,5.2
2023-02-16T16:43:59.554Z,5.2
2023-02-16T16:54:06.157Z,5.1
2023-02-16T17:04:12.746Z,5.1
2023-02-16T17:14:19.291Z,4.9
2023-02-16T17:24:25.715Z,4.8
2023-02-16T17:34:32.382Z,4.5
2023-02-16T17:44:38.882Z,4.4
2023-02-16T17:54:45.505Z,4.2
2023-02-16T18:04:52.078Z,4.3
2023-02-16T18:14:58.687Z,4.2
2023-02-16T18:25:05.262Z,4.2
2023-02-16T18:35:11.844Z,4.2
2023-02-16T18:45:17.682Z,4.2
2023-02-16T18:55:24.281Z,4.2
2023-02-16T19:05:30.825Z,4.2
2023-02-16T19:15:37.410Z,4.3
2023-02-16T19:25:44.131Z,4.3
2023-02-16T19:35:50.605Z,4.3
2023-02-16T19:45:57.200Z,4.4
2023-02-16T19:56:03.833Z,4.4
2023-02-16T20:06:10.368Z,4.5
2023-02-16T20:16:17.125Z,4.5
2023-02-16T20:26:23.725Z,4.5
2023-02-16T20:36:30.402Z,4.4
2023-02-16T20:46:37.128Z,4.4
2023-02-16T20:56:43.039Z,4.4
2023-02-16T21:06:49.598Z,4.3
2023-02-16T21:16:56.240Z,4.4
2023-02-16T21:27:02.657Z,4.4
2023-02-16T21:37:09.270Z,4.5
2023-02-16T21:47:15.829Z,4.6
2023-02-16T21:57:22.536Z,4.6
2023-02-16T22:07:29.033Z,4.7
2023-02-16T22:17:35.659Z,5.1
2023-02-16T22:27:42.228Z,5.6
2023-02-16T22:37:48.880Z,5.9
2023-02-16T22:47:55.366Z,6.2
2023-02-16T22:58:01.951Z,6.3
2023-02-16T23:08:07.801Z,6.5
2023-02-16T23:18:14.462Z,6.6
2023-02-16T23:28:20.969Z,6.6
2023-02-16T23:38:27.568Z,6.6
2023-02-16T23:48:34.146Z,6.6
2023-02-16T23:58:40.713Z,6.6
